createdAt,value
2019-04-22T00:02:05.669Z,15.80
2019-04-22T00:04:46.314Z,15.70
2019-04-22T00:07:22.157Z,15.70
2019-04-22T00:10:03.349Z,15.70
2019-04-22T00:14:54.220Z,15.80
2019-04-22T00:20:04.329Z,15.80
2019-04-22T00:25:03.442Z,15.70
2019-04-22T00:27:34.326Z,15.70
2019-04-22T00:30:15.482Z,15.80
2019-04-22T00:32:37.898Z,15.80
2019-04-22T00:35:06.016Z,15.70
2019-04-22T00:37:43.735Z,15.70
2019-04-22T00:40:14.398Z,15.70
2019-04-22T00:42:41.322Z,15.70
2019-04-22T00:45:15.632Z,15.60
2019-04-22T00:47:39.997Z,15.70
2019-04-22T00:50:19.257Z,15.70
2019-04-22T00:52:38.796Z,15.70
2019-04-22T00:55:16.448Z,15.70
2019-04-22T00:57:42.134Z,15.70
2019-04-22T01:00:11.911Z,15.60
2019-04-22T01:02:49.725Z,15.60
2019-04-22T01:05:15.190Z,15.50
2019-04-22T01:07:43.178Z,15.30
2019-04-22T01:10:19.017Z,15.20
2019-04-22T01:12:43.999Z,15.10
2019-04-22T01:15:15.457Z,15.10
2019-04-22T01:17:44.993Z,15.00
2019-04-22T01:20:39.063Z,15.00
2019-04-22T01:22:47.689Z,14.80
2019-04-22T01:25:17.650Z,14.80
2019-04-22T01:27:41.560Z,14.80
2019-04-22T01:30:07.407Z,14.90
2019-04-22T01:32:34.040Z,14.90
2019-04-22T01:35:13.361Z,15.00
2019-04-22T01:37:46.079Z,15.00
2019-04-22T01:40:25.321Z,15.00
2019-04-22T01:43:03.843Z,15.00
2019-04-22T01:45:26.473Z,15.00
2019-04-22T01:48:00.623Z,15.00
2019-04-22T01:50:27.750Z,15.00
2019-04-22T01:52:59.172Z,15.00
2019-04-22T01:57:53.528Z,14.90
2019-04-22T02:00:25.125Z,14.90
2019-04-22T02:02:57.501Z,14.80
2019-04-22T02:05:24.328Z,14.70
2019-04-22T02:08:02.474Z,14.50
2019-04-22T02:10:36.013Z,14.50
2019-04-22T02:13:01.967Z,14.40
2019-04-22T02:15:34.606Z,14.40
2019-04-22T02:18:01.233Z,14.30
2019-04-22T02:20:31.553Z,14.40
2019-04-22T02:34:04.605Z,14.30
2019-04-22T02:41:26.199Z,14.40
2019-04-22T02:43:56.871Z,14.30
2019-04-22T02:51:16.815Z,14.20
2019-04-22T02:54:17.238Z,14.10
2019-04-22T02:59:00.106Z,14.10
2019-04-22T03:01:23.506Z,14.00
2019-04-22T03:06:29.552Z,13.90
2019-04-22T03:08:48.673Z,13.90
2019-04-22T03:11:22.317Z,14.00
2019-04-22T03:18:55.595Z,13.80
2019-04-22T03:21:22.027Z,13.80
2019-04-22T03:28:51.238Z,13.80
2019-04-22T03:37:04.574Z,13.80
2019-04-22T03:39:20.316Z,13.70
2019-04-22T03:42:05.730Z,13.70
2019-04-22T03:44:26.995Z,13.80
2019-04-22T03:46:32.588Z,13.80
2019-04-22T03:49:18.997Z,13.80
2019-04-22T03:51:52.066Z,13.80
2019-04-22T03:54:12.785Z,13.80
2019-04-22T03:57:10.431Z,13.90
2019-04-22T03:59:20.079Z,13.80
2019-04-22T04:04:20.996Z,13.80
2019-04-22T04:06:50.524Z,13.80
2019-04-22T04:09:09.404Z,13.80
2019-04-22T04:11:53.837Z,13.80
2019-04-22T04:14:09.311Z,13.70
2019-04-22T04:16:45.938Z,13.60
2019-04-22T04:21:53.557Z,13.50
2019-04-22T04:24:25.854Z,13.50
2019-04-22T04:29:37.732Z,13.70
2019-04-22T04:31:43.309Z,13.70
2019-04-22T04:36:42.191Z,13.80
2019-04-22T04:49:17.725Z,13.90
2019-04-22T04:51:48.403Z,13.90
2019-04-22T04:59:22.834Z,14.10
2019-04-22T05:02:00.114Z,13.90
2019-04-22T05:07:00.015Z,13.80
2019-04-22T05:09:19.717Z,13.80
2019-04-22T05:14:23.227Z,13.90
2019-04-22T05:16:51.525Z,14.00
2019-04-22T05:21:51.160Z,14.10
2019-04-22T05:24:29.740Z,14.00
2019-04-22T05:26:52.818Z,14.00
2019-04-22T05:29:23.472Z,14.10
2019-04-22T05:31:52.300Z,14.30
2019-04-22T05:34:17.452Z,14.40
2019-04-22T05:36:47.767Z,14.50
2019-04-22T05:39:17.144Z,14.70
2019-04-22T05:41:48.658Z,14.80
2019-04-22T05:44:14.502Z,15.00
2019-04-22T05:46:49.487Z,15.10
2019-04-22T05:49:19.245Z,15.20
2019-04-22T05:52:05.256Z,15.30
2019-04-22T05:54:22.920Z,15.30
2019-04-22T05:57:08.310Z,15.40
2019-04-22T05:59:22.790Z,15.40
2019-04-22T06:02:04.782Z,15.50
2019-04-22T06:04:39.940Z,15.80
2019-04-22T06:06:49.926Z,15.80
2019-04-22T06:09:27.496Z,15.90
2019-04-22T06:11:46.429Z,16.00
2019-04-22T06:14:20.393Z,16.20
2019-04-22T06:16:57.158Z,16.40
2019-04-22T06:19:27.802Z,16.50
2019-04-22T06:21:57.905Z,16.60
2019-04-22T06:24:42.026Z,16.60
2019-04-22T06:27:08.015Z,16.60
2019-04-22T06:29:41.738Z,16.60
2019-04-22T06:37:07.338Z,17.00
2019-04-22T06:39:34.178Z,17.10
2019-04-22T06:42:08.135Z,17.20
2019-04-22T06:44:37.025Z,17.20
2019-04-22T06:47:05.310Z,17.20
2019-04-22T06:49:35.527Z,17.30
2019-04-22T06:52:08.093Z,17.30
2019-04-22T06:54:32.652Z,17.30
2019-04-22T06:57:06.147Z,17.30
2019-04-22T06:59:37.650Z,17.30
2019-04-22T07:02:11.749Z,17.20
2019-04-22T07:04:36.432Z,17.20
2019-04-22T07:07:08.383Z,17.40
2019-04-22T07:12:11.627Z,17.70
2019-04-22T07:14:35.257Z,17.80
2019-04-22T07:17:08.623Z,18.00
2019-04-22T07:19:38.325Z,18.10
2019-04-22T07:22:15.188Z,18.40
2019-04-22T07:27:10.536Z,18.80
2019-04-22T07:32:39.272Z,19.10
2019-04-22T07:34:47.402Z,19.30
2019-04-22T07:37:27.817Z,19.50
2019-04-22T07:39:43.447Z,19.50
2019-04-22T07:42:12.632Z,19.60
2019-04-22T07:44:47.683Z,19.70
2019-04-22T07:47:18.481Z,20.00
2019-04-22T07:49:46.959Z,20.00
2019-04-22T07:52:20.687Z,20.00
2019-04-22T07:54:46.808Z,19.90
2019-04-22T07:57:22.733Z,19.90
2019-04-22T07:59:50.475Z,19.80
2019-04-22T08:02:16.287Z,19.90
2019-04-22T08:05:01.945Z,19.90
2019-04-22T08:07:17.750Z,19.90
2019-04-22T08:09:58.043Z,20.00
2019-04-22T08:12:16.682Z,19.90
2019-04-22T08:14:45.943Z,19.70
2019-04-22T08:17:51.874Z,19.50
2019-04-22T08:19:50.648Z,19.40
2019-04-22T08:22:14.333Z,19.40
2019-04-22T08:24:51.321Z,19.40
2019-04-22T08:27:17.909Z,19.40
2019-04-22T08:29:59.803Z,19.20
2019-04-22T08:32:21.701Z,19.20
2019-04-22T08:34:47.425Z,19.30
2019-04-22T08:39:55.139Z,19.70
2019-04-22T08:42:35.227Z,19.70
2019-04-22T08:45:05.952Z,19.70
2019-04-22T08:47:27.742Z,19.70
2019-04-22T08:52:30.276Z,19.50
2019-04-22T08:54:57.067Z,19.50
2019-04-22T08:57:34.694Z,19.50
2019-04-22T08:59:59.210Z,19.60
2019-04-22T09:02:34.560Z,19.70
2019-04-22T09:04:58.344Z,19.60
2019-04-22T09:07:30.282Z,19.40
2019-04-22T09:10:02.152Z,19.20
2019-04-22T09:12:46.938Z,19.10
2019-04-22T09:15:01.080Z,19.20
2019-04-22T09:17:40.280Z,19.20
2019-04-22T09:20:18.459Z,19.30
2019-04-22T09:22:40.996Z,19.40
2019-04-22T09:25:11.699Z,19.70
2019-04-22T09:27:44.258Z,19.60
2019-04-22T09:30:17.011Z,19.70
2019-04-22T09:32:45.184Z,19.70
2019-04-22T09:35:10.175Z,19.60
2019-04-22T09:37:48.317Z,19.90
2019-04-22T09:40:17.133Z,20.30
2019-04-22T09:42:48.708Z,20.50
2019-04-22T09:45:10.240Z,20.30
2019-04-22T09:47:53.881Z,20.30
2019-04-22T09:50:15.305Z,20.70
2019-04-22T09:52:51.448Z,21.10
2019-04-22T09:55:18.258Z,21.20
2019-04-22T09:57:44.963Z,21.40
2019-04-22T10:00:15.525Z,21.70
2019-04-22T10:02:57.564Z,21.80
2019-04-22T10:05:20.902Z,21.90
2019-04-22T10:07:56.125Z,21.90
2019-04-22T10:10:36.582Z,21.60
2019-04-22T10:12:46.719Z,21.90
2019-04-22T10:15:19.707Z,22.20
2019-04-22T10:17:54.506Z,22.80
2019-04-22T10:20:24.962Z,22.80
2019-04-22T10:22:51.923Z,22.70
2019-04-22T10:25:25.224Z,22.50
2019-04-22T10:27:55.210Z,22.70
2019-04-22T10:30:37.161Z,22.80
2019-04-22T10:32:48.129Z,23.20
2019-04-22T10:35:17.103Z,23.00
2019-04-22T10:37:42.747Z,23.30
2019-04-22T10:40:19.609Z,23.60
2019-04-22T10:42:49.491Z,24.10
2019-04-22T10:45:18.557Z,23.90
2019-04-22T10:47:48.023Z,23.80
2019-04-22T10:50:18.967Z,23.70
2019-04-22T10:52:47.784Z,23.40
2019-04-22T10:55:17.286Z,23.70
2019-04-22T10:57:46.401Z,23.70
2019-04-22T11:00:15.836Z,24.00
2019-04-22T11:02:45.711Z,23.90
2019-04-22T11:05:16.482Z,24.00
2019-04-22T11:07:51.841Z,24.40
2019-04-22T11:10:34.594Z,24.10
2019-04-22T11:12:47.161Z,24.60
2019-04-22T11:15:18.073Z,24.70
2019-04-22T11:17:47.380Z,25.10
2019-04-22T11:20:17.658Z,24.60
2019-04-22T11:22:46.708Z,24.20
2019-04-22T11:25:16.110Z,24.60
2019-04-22T11:27:44.901Z,24.50
2019-04-22T11:30:18.257Z,24.90
2019-04-22T11:32:46.531Z,24.60
2019-04-22T11:35:16.147Z,24.50
2019-04-22T11:37:46.486Z,24.40
2019-04-22T11:40:22.267Z,24.90
2019-04-22T11:42:46.267Z,24.80
2019-04-22T11:45:15.522Z,24.60
2019-04-22T11:47:45.439Z,24.60
2019-04-22T11:50:15.680Z,25.10
2019-04-22T11:52:44.781Z,25.00
2019-04-22T11:55:15.039Z,24.90
2019-04-22T11:57:44.792Z,25.10
2019-04-22T12:00:14.739Z,24.80
2019-04-22T12:02:44.813Z,25.20
2019-04-22T12:05:14.274Z,25.70
2019-04-22T12:07:42.983Z,25.60
2019-04-22T12:10:22.823Z,24.80
2019-04-22T12:12:44.709Z,24.80
2019-04-22T12:15:15.088Z,24.80
2019-04-22T12:17:44.747Z,24.80
2019-04-22T12:20:18.381Z,25.00
2019-04-22T12:22:48.924Z,25.10
2019-04-22T12:25:32.346Z,25.30
2019-04-22T12:27:52.835Z,25.20
2019-04-22T12:30:23.485Z,25.80
2019-04-22T12:32:52.725Z,25.40
2019-04-22T12:35:21.922Z,25.20
2019-04-22T12:37:55.872Z,25.10
2019-04-22T12:40:33.816Z,25.40
2019-04-22T12:42:53.475Z,25.60
2019-04-22T12:45:22.617Z,25.50
2019-04-22T12:47:51.389Z,25.00
2019-04-22T12:50:26.068Z,25.00
2019-04-22T12:52:57.034Z,24.50
2019-04-22T12:55:21.889Z,24.10
2019-04-22T12:57:53.866Z,23.90
2019-04-22T13:00:22.470Z,24.10
2019-04-22T13:02:51.471Z,24.00
2019-04-22T13:05:20.745Z,24.30
2019-04-22T13:07:49.628Z,24.20
2019-04-22T13:10:20.152Z,24.10
2019-04-22T13:12:49.034Z,23.70
2019-04-22T13:15:18.310Z,23.90
2019-04-22T13:17:59.499Z,23.80
2019-04-22T13:20:19.835Z,23.60
2019-04-22T13:22:48.623Z,23.50
2019-04-22T13:25:17.875Z,23.40
2019-04-22T13:27:46.839Z,24.00
2019-04-22T13:30:18.720Z,24.00
2019-04-22T13:32:49.042Z,24.20
2019-04-22T13:35:19.974Z,24.20
2019-04-22T13:37:48.734Z,24.40
2019-04-22T13:40:19.213Z,24.00
2019-04-22T13:42:49.191Z,24.10
2019-04-22T13:45:18.391Z,23.90
2019-04-22T13:48:08.731Z,23.80
2019-04-22T13:53:34.324Z,23.70
2019-04-22T13:55:50.236Z,23.90
2019-04-22T13:58:03.226Z,23.90
2019-04-22T14:00:34.488Z,23.70
2019-04-22T14:03:22.522Z,23.50
2019-04-22T14:06:04.944Z,23.50
2019-04-22T14:08:35.265Z,23.90
2019-04-22T14:11:20.688Z,25.00
2019-04-22T14:13:34.542Z,25.30
2019-04-22T14:16:04.779Z,25.30
2019-04-22T14:18:34.913Z,24.50
2019-04-22T14:21:05.055Z,24.00
2019-04-22T14:23:34.844Z,23.80
2019-04-22T14:26:04.991Z,23.50
2019-04-22T14:28:35.482Z,23.40
2019-04-22T14:31:06.709Z,23.00
2019-04-22T14:33:36.257Z,22.90
2019-04-22T14:36:05.314Z,22.60
2019-04-22T14:38:34.665Z,22.40
2019-04-22T14:41:05.753Z,22.40
2019-04-22T14:44:26.552Z,22.40
2019-04-22T14:46:36.462Z,22.20
2019-04-22T14:48:59.000Z,21.90
2019-04-22T14:51:23.933Z,21.80
2019-04-22T14:53:55.417Z,21.80
2019-04-22T14:56:08.354Z,21.60
2019-04-22T14:58:37.422Z,21.60
2019-04-22T15:01:06.957Z,21.50
2019-04-22T15:03:39.930Z,21.70
2019-04-22T15:06:06.435Z,21.70
2019-04-22T15:08:35.293Z,21.50
2019-04-22T15:11:05.870Z,21.30
2019-04-22T15:13:35.655Z,21.10
2019-04-22T15:16:23.796Z,21.00
2019-04-22T15:18:55.698Z,20.90
2019-04-22T15:21:28.967Z,20.80
2019-04-22T15:24:00.519Z,20.60
2019-04-22T15:26:30.702Z,20.40
2019-04-22T15:28:59.760Z,20.50
2019-04-22T15:31:29.179Z,20.40
2019-04-22T15:33:58.389Z,20.20
2019-04-22T15:36:28.307Z,20.30
2019-04-22T15:38:57.577Z,20.00
2019-04-22T15:41:26.436Z,20.00
2019-04-22T15:43:55.176Z,20.00
2019-04-22T15:46:23.820Z,19.80
2019-04-22T15:48:53.745Z,19.80
2019-04-22T15:51:22.664Z,19.70
2019-04-22T15:53:51.959Z,19.80
2019-04-22T15:56:21.087Z,20.00
2019-04-22T15:58:51.327Z,19.90
2019-04-22T16:01:27.471Z,19.80
2019-04-22T16:03:50.585Z,19.80
2019-04-22T16:06:19.972Z,19.60
2019-04-22T16:08:49.839Z,19.60
2019-04-22T16:11:19.925Z,19.60
2019-04-22T16:13:48.801Z,19.60
2019-04-22T16:16:18.630Z,19.60
2019-04-22T16:18:48.595Z,19.60
2019-04-22T16:21:30.261Z,19.40
2019-04-22T16:23:56.549Z,19.50
2019-04-22T16:26:28.354Z,19.50
2019-04-22T16:28:58.133Z,19.40
2019-04-22T16:31:27.583Z,19.50
2019-04-22T16:33:56.411Z,19.40
2019-04-22T16:36:25.073Z,19.40
2019-04-22T16:39:02.720Z,19.30
2019-04-22T16:41:32.754Z,19.10
2019-04-22T16:44:04.564Z,19.10
2019-04-22T16:46:33.793Z,18.90
2019-04-22T16:49:03.407Z,18.80
2019-04-22T16:51:33.831Z,18.60
2019-04-22T16:54:04.076Z,18.60
2019-04-22T16:56:35.075Z,18.50
2019-04-22T16:59:04.430Z,18.50
2019-04-22T17:01:34.946Z,18.40
2019-04-22T17:04:12.329Z,18.20
2019-04-22T17:06:45.928Z,18.10
2019-04-22T17:09:17.524Z,18.00
2019-04-22T17:11:45.742Z,18.10
2019-04-22T17:14:20.472Z,18.10
2019-04-22T17:16:46.332Z,18.00
2019-04-22T17:19:15.368Z,18.00
2019-04-22T17:21:45.595Z,17.90
2019-04-22T17:24:14.511Z,17.90
2019-04-22T17:26:44.261Z,17.90
2019-04-22T17:29:14.391Z,17.90
2019-04-22T17:31:48.460Z,17.90
2019-04-22T17:34:13.898Z,17.80
2019-04-22T17:36:42.783Z,17.70
2019-04-22T17:39:22.772Z,17.70
2019-04-22T17:41:59.266Z,17.70
2019-04-22T17:44:38.136Z,17.70
2019-04-22T17:46:58.540Z,17.70
2019-04-22T17:49:48.980Z,17.70
2019-04-22T17:54:50.149Z,17.60
2019-04-22T17:57:21.622Z,17.60
2019-04-22T17:59:56.830Z,17.50
2019-04-22T18:02:22.128Z,17.50
2019-04-22T18:04:40.052Z,17.50
2019-04-22T18:07:29.582Z,17.60
2019-04-22T18:12:34.000Z,17.50
2019-04-22T18:14:59.585Z,17.50
2019-04-22T18:17:32.409Z,17.50
2019-04-22T18:19:53.139Z,17.50
2019-04-22T18:22:19.747Z,17.50
2019-04-22T18:24:54.140Z,17.40
2019-04-22T18:27:40.334Z,17.40
2019-04-22T18:29:51.518Z,17.30
2019-04-22T18:32:20.224Z,17.40
2019-04-22T18:34:51.602Z,17.30
2019-04-22T18:37:41.371Z,17.20
2019-04-22T18:40:15.030Z,17.10
2019-04-22T18:42:41.957Z,17.10
2019-04-22T18:45:29.590Z,17.10
2019-04-22T18:47:44.227Z,17.20
2019-04-22T18:50:22.936Z,17.10
2019-04-22T18:52:57.961Z,17.20
2019-04-22T18:55:26.481Z,17.20
2019-04-22T18:58:01.061Z,17.20
2019-04-22T19:00:18.522Z,17.10
2019-04-22T19:02:56.948Z,17.00
2019-04-22T19:05:34.663Z,17.00
2019-04-22T19:08:18.692Z,16.90
2019-04-22T19:10:55.751Z,16.90
2019-04-22T19:13:49.130Z,17.00
2019-04-22T19:15:54.167Z,16.90
2019-04-22T19:18:25.640Z,16.90
2019-04-22T19:20:51.307Z,16.90
2019-04-22T19:23:20.740Z,17.00
2019-04-22T19:25:43.779Z,17.00
2019-04-22T19:28:27.415Z,16.90
2019-04-22T19:30:51.267Z,16.90
2019-04-22T19:33:22.274Z,17.00
2019-04-22T19:35:43.309Z,17.10
2019-04-22T19:38:12.250Z,17.00
2019-04-22T19:41:03.412Z,16.90
2019-04-22T19:43:28.296Z,16.90
2019-04-22T19:45:55.783Z,17.00
2019-04-22T19:48:39.709Z,17.00
2019-04-22T19:51:05.829Z,17.00
2019-04-22T19:53:35.646Z,17.00
2019-04-22T19:55:54.091Z,16.90
2019-04-22T19:58:27.787Z,16.90
2019-04-22T20:01:02.382Z,16.90
2019-04-22T20:03:53.005Z,17.00
2019-04-22T20:06:18.112Z,17.00
2019-04-22T20:08:44.138Z,16.90
2019-04-22T20:11:17.054Z,16.90
2019-04-22T20:13:47.945Z,16.90
2019-04-22T20:16:04.200Z,17.00
2019-04-22T20:18:48.680Z,16.90
2019-04-22T20:21:17.899Z,16.90
2019-04-22T20:23:38.280Z,17.00
2019-04-22T20:26:07.311Z,16.90
2019-04-22T20:28:46.875Z,16.90
2019-04-22T20:31:22.070Z,16.90
2019-04-22T20:33:51.330Z,16.90
2019-04-22T20:36:39.473Z,16.90
2019-04-22T20:38:45.386Z,16.80
2019-04-22T20:41:17.429Z,16.80
2019-04-22T20:43:54.062Z,16.80
2019-04-22T20:46:22.324Z,16.80
2019-04-22T20:48:55.381Z,16.80
2019-04-22T20:51:28.222Z,16.60
2019-04-22T20:53:56.709Z,16.60
2019-04-22T20:56:18.792Z,16.70
2019-04-22T20:58:51.690Z,16.70
2019-04-22T21:01:15.799Z,16.80
2019-04-22T21:03:41.915Z,16.70
2019-04-22T21:06:22.907Z,16.80
2019-04-22T21:08:56.020Z,16.80
2019-04-22T21:11:20.709Z,16.80
2019-04-22T21:13:54.249Z,16.70
2019-04-22T21:16:31.455Z,16.60
2019-04-22T21:18:46.134Z,16.40
2019-04-22T21:21:25.123Z,16.40
2019-04-22T21:23:51.424Z,16.30
2019-04-22T21:26:24.143Z,16.10
2019-04-22T21:28:53.223Z,16.10
2019-04-22T21:31:30.623Z,16.00
2019-04-22T21:34:02.254Z,16.00
2019-04-22T21:36:35.580Z,16.00
2019-04-22T21:38:57.865Z,16.00
2019-04-22T21:41:25.028Z,15.90
2019-04-22T21:43:58.201Z,15.90
2019-04-22T21:46:30.948Z,16.00
2019-04-22T21:48:59.949Z,16.00
2019-04-22T21:51:42.072Z,16.00
2019-04-22T21:54:04.237Z,16.10
2019-04-22T21:56:42.249Z,16.00
2019-04-22T21:59:11.048Z,16.10
2019-04-22T22:01:50.059Z,16.10
2019-04-22T22:04:15.259Z,16.00
2019-04-22T22:06:35.953Z,15.90
2019-04-22T22:09:15.295Z,15.90
2019-04-22T22:11:40.069Z,16.00
2019-04-22T22:14:11.617Z,16.00
2019-04-22T22:16:34.839Z,15.90
2019-04-22T22:19:11.698Z,15.80
2019-04-22T22:21:51.415Z,15.80
2019-04-22T22:24:14.825Z,15.70
2019-04-22T22:26:45.101Z,15.70
2019-04-22T22:29:18.380Z,15.60
2019-04-22T22:31:47.240Z,15.60
2019-04-22T22:34:19.173Z,15.60
2019-04-22T22:36:40.343Z,15.50
2019-04-22T22:39:08.723Z,15.40
2019-04-22T22:41:26.003Z,15.40
2019-04-22T22:44:03.199Z,15.40
2019-04-22T22:46:34.171Z,15.40
2019-04-22T22:49:18.544Z,15.40
2019-04-22T22:52:27.358Z,15.40
2019-04-22T22:54:18.442Z,15.30
2019-04-22T22:56:57.246Z,15.30
2019-04-22T22:59:18.569Z,15.30
2019-04-22T23:01:45.152Z,15.40
2019-04-22T23:04:26.444Z,15.50
2019-04-22T23:06:49.762Z,15.50
2019-04-22T23:09:21.992Z,15.40
2019-04-22T23:12:06.493Z,15.40
2019-04-22T23:14:20.871Z,15.40
2019-04-22T23:16:39.574Z,15.40
2019-04-22T23:19:02.727Z,15.30
2019-04-22T23:21:39.715Z,15.40
2019-04-22T23:24:22.696Z,15.30
2019-04-22T23:26:57.954Z,15.40
2019-04-22T23:29:26.223Z,15.40
2019-04-22T23:31:59.699Z,15.30
2019-04-22T23:34:38.063Z,15.20
2019-04-22T23:37:17.765Z,15.10
2019-04-22T23:40:04.124Z,14.90
2019-04-22T23:45:00.667Z,14.70
2019-04-22T23:47:23.836Z,14.60
2019-04-22T23:49:57.887Z,14.60
2019-04-22T23:52:28.690Z,14.60
2019-04-22T23:55:06.946Z,14.70
2019-04-22T23:57:33.915Z,14.70
